sensor_id;sensor_type;location;lat;lon;timestamp;pressure;altitude;pressure_sealevel;temperature;humidity
12452;BME280;72521;48.924;12.204;2024-01-30T00:00:02;99043.94;;;-1.93;86.75
12452;BME280;72521;48.924;12.204;2024-01-30T00:05:08;99041.66;;;-1.96;86.48
12452;BME280;72521;48.924;12.204;2024-01-30T00:10:12;99048.00;;;-1.74;85.94
12452;BME280;72521;48.924;12.204;2024-01-30T00:15:17;99041.34;;;-1.84;85.78
12452;BME280;72521;48.924;12.204;2024-01-30T00:20:22;99038.72;;;-2.17;85.96
12452;BME280;72521;48.924;12.204;2024-01-30T00:25:26;99033.88;;;-2.04;85.48
12452;BME280;72521;48.924;12.204;2024-01-30T00:30:31;99041.81;;;-1.97;85.18
12452;BME280;72521;48.924;12.204;2024-01-30T00:35:36;99030.78;;;-2.07;85.05
12452;BME280;72521;48.924;12.204;2024-01-30T00:40:40;99038.72;;;-2.09;84.84
12452;BME280;72521;48.924;12.204;2024-01-30T00:45:44;99042.63;;;-2.05;84.60
12452;BME280;72521;48.924;12.204;2024-01-30T00:50:50;99035.00;;;-2.14;84.47
12452;BME280;72521;48.924;12.204;2024-01-30T00:55:54;99032.25;;;-1.97;84.20
12452;BME280;72521;48.924;12.204;2024-01-30T01:00:58;99027.38;;;-2.00;83.92
12452;BME280;72521;48.924;12.204;2024-01-30T01:06:04;99030.31;;;-2.03;83.72
12452;BME280;72521;48.924;12.204;2024-01-30T01:11:08;99025.44;;;-2.14;83.63
12452;BME280;72521;48.924;12.204;2024-01-30T01:16:12;99029.63;;;-2.29;83.70
12452;BME280;72521;48.924;12.204;2024-01-30T01:21:17;99034.13;;;-2.39;83.68
12452;BME280;72521;48.924;12.204;2024-01-30T01:26:21;99030.53;;;-2.54;83.72
12452;BME280;72521;48.924;12.204;2024-01-30T01:31:26;99029.72;;;-2.55;83.62
12452;BME280;72521;48.924;12.204;2024-01-30T01:36:33;99037.97;;;-2.59;83.48
12452;BME280;72521;48.924;12.204;2024-01-30T01:41:37;99034.53;;;-2.68;83.43
12452;BME280;72521;48.924;12.204;2024-01-30T01:46:42;99025.81;;;-2.59;83.24
12452;BME280;72521;48.924;12.204;2024-01-30T01:51:49;99029.63;;;-2.29;82.90
12452;BME280;72521;48.924;12.204;2024-01-30T01:56:54;99022.50;;;-2.19;82.65
12452;BME280;72521;48.924;12.204;2024-01-30T02:01:59;99014.72;;;-2.11;82.47
12452;BME280;72521;48.924;12.204;2024-01-30T02:07:06;99013.28;;;-2.05;82.29
12452;BME280;72521;48.924;12.204;2024-01-30T02:12:10;99015.38;;;-2.09;82.17
12452;BME280;72521;48.924;12.204;2024-01-30T02:17:15;99009.38;;;-2.09;82.04
12452;BME280;72521;48.924;12.204;2024-01-30T02:22:21;99006.13;;;-2.19;82.02
12452;BME280;72521;48.924;12.204;2024-01-30T02:27:26;99017.00;;;-2.16;81.88
12452;BME280;72521;48.924;12.204;2024-01-30T02:32:30;99011.81;;;-2.08;81.69
12452;BME280;72521;48.924;12.204;2024-01-30T02:37:35;99007.09;;;-2.29;81.72
12452;BME280;72521;48.924;12.204;2024-01-30T02:42:40;99013.38;;;-2.39;81.71
12452;BME280;72521;48.924;12.204;2024-01-30T02:47:45;99018.56;;;-2.39;81.62
12452;BME280;72521;48.924;12.204;2024-01-30T02:52:50;99015.78;;;-2.54;81.65
12452;BME280;72521;48.924;12.204;2024-01-30T02:57:54;99000.56;;;-2.57;81.59
12452;BME280;72521;48.924;12.204;2024-01-30T03:02:59;98999.94;;;-2.51;81.50
12452;BME280;72521;48.924;12.204;2024-01-30T03:08:05;99009.66;;;-2.45;81.41
12452;BME280;72521;48.924;12.204;2024-01-30T03:13:09;99014.34;;;-2.48;81.39
12452;BME280;72521;48.924;12.204;2024-01-30T03:18:13;99017.69;;;-2.72;81.48
12452;BME280;72521;48.924;12.204;2024-01-30T03:23:19;99019.84;;;-2.93;81.54
12452;BME280;72521;48.924;12.204;2024-01-30T03:28:23;99011.75;;;-2.98;81.54
12452;BME280;72521;48.924;12.204;2024-01-30T03:33:27;99007.03;;;-3.03;81.51
12452;BME280;72521;48.924;12.204;2024-01-30T03:38:32;99010.44;;;-3.03;81.49
12452;BME280;72521;48.924;12.204;2024-01-30T03:43:36;99011.78;;;-3.24;81.57
12452;BME280;72521;48.924;12.204;2024-01-30T03:48:41;99003.97;;;-3.32;81.60
12452;BME280;72521;48.924;12.204;2024-01-30T03:53:46;99023.38;;;-3.37;81.62
12452;BME280;72521;48.924;12.204;2024-01-30T03:58:50;99016.59;;;-3.29;81.54
12452;BME280;72521;48.924;12.204;2024-01-30T04:03:54;99024.72;;;-3.50;81.63
12452;BME280;72521;48.924;12.204;2024-01-30T04:09:01;99019.84;;;-3.53;81.61
12452;BME280;72521;48.924;12.204;2024-01-30T04:14:06;99020.81;;;-3.54;81.58
12452;BME280;72521;48.924;12.204;2024-01-30T04:19:11;99008.63;;;-3.36;81.43
12452;BME280;72521;48.924;12.204;2024-01-30T04:24:16;99009.25;;;-3.42;81.46
12452;BME280;72521;48.924;12.204;2024-01-30T04:29:21;99012.78;;;-3.43;81.42
12452;BME280;72521;48.924;12.204;2024-01-30T04:34:25;99017.53;;;-3.39;81.45
12452;BME280;72521;48.924;12.204;2024-01-30T04:39:32;99018.78;;;-3.43;81.41
12452;BME280;72521;48.924;12.204;2024-01-30T04:44:36;99018.97;;;-3.62;81.46
12452;BME280;72521;48.924;12.204;2024-01-30T04:49:40;99023.66;;;-3.65;81.49
12452;BME280;72521;48.924;12.204;2024-01-30T04:54:46;99032.09;;;-3.55;81.47
12452;BME280;72521;48.924;12.204;2024-01-30T04:59:50;99030.00;;;-3.60;81.42
12452;BME280;72521;48.924;12.204;2024-01-30T05:04:54;99029.41;;;-3.46;81.39
12452;BME280;72521;48.924;12.204;2024-01-30T05:10:00;99029.84;;;-3.32;81.27
12452;BME280;72521;48.924;12.204;2024-01-30T05:15:09;99021.75;;;-3.38;81.19
12452;BME280;72521;48.924;12.204;2024-01-30T05:20:13;99023.81;;;-3.07;81.02
12452;BME280;72521;48.924;12.204;2024-01-30T05:25:19;99017.38;;;-3.03;80.90
12452;BME280;72521;48.924;12.204;2024-01-30T05:30:23;99023.81;;;-3.07;80.88
12452;BME280;72521;48.924;12.204;2024-01-30T05:35:27;99017.91;;;-3.00;80.76
12452;BME280;72521;48.924;12.204;2024-01-30T05:40:33;99020.66;;;-2.93;80.65
12452;BME280;72521;48.924;12.204;2024-01-30T05:45:38;99021.19;;;-2.89;80.60
12452;BME280;72521;48.924;12.204;2024-01-30T05:50:42;99028.00;;;-2.88;80.55
12452;BME280;72521;48.924;12.204;2024-01-30T05:55:47;99020.69;;;-2.85;80.49
12452;BME280;72521;48.924;12.204;2024-01-30T06:00:51;99026.38;;;-2.81;80.45
12452;BME280;72521;48.924;12.204;2024-01-30T06:05:56;99031.41;;;-2.80;80.39
12452;BME280;72521;48.924;12.204;2024-01-30T06:11:01;99035.28;;;-2.84;80.42
12452;BME280;72521;48.924;12.204;2024-01-30T06:16:09;99039.78;;;-2.86;80.39
12452;BME280;72521;48.924;12.204;2024-01-30T06:21:14;99047.09;;;-2.89;80.39
12452;BME280;72521;48.924;12.204;2024-01-30T06:26:19;99037.53;;;-2.89;80.37
12452;BME280;72521;48.924;12.204;2024-01-30T06:31:23;99043.00;;;-2.92;80.35
12452;BME280;72521;48.924;12.204;2024-01-30T06:36:27;99055.59;;;-2.97;80.36
12452;BME280;72521;48.924;12.204;2024-01-30T06:41:33;99057.69;;;-3.01;80.38
12452;BME280;72521;48.924;12.204;2024-01-30T06:46:37;99059.31;;;-3.00;80.33
12452;BME280;72521;48.924;12.204;2024-01-30T06:51:41;99063.31;;;-3.05;80.36
12452;BME280;72521;48.924;12.204;2024-01-30T06:56:47;99059.47;;;-3.01;80.31
12452;BME280;72521;48.924;12.204;2024-01-30T07:01:51;99065.94;;;-2.97;80.30
12452;BME280;72521;48.924;12.204;2024-01-30T07:06:55;99065.13;;;-2.97;80.26
12452;BME280;72521;48.924;12.204;2024-01-30T07:12:02;99068.09;;;-2.92;80.24
12452;BME280;72521;48.924;12.204;2024-01-30T07:17:06;99070.41;;;-2.81;80.20
12452;BME280;72521;48.924;12.204;2024-01-30T07:22:10;99070.28;;;-2.80;80.19
12452;BME280;72521;48.924;12.204;2024-01-30T07:27:16;99074.19;;;-2.68;80.16
12452;BME280;72521;48.924;12.204;2024-01-30T07:32:21;99078.66;;;-2.52;80.13
12452;BME280;72521;48.924;12.204;2024-01-30T07:37:25;99082.22;;;-2.45;80.12
12452;BME280;72521;48.924;12.204;2024-01-30T07:42:30;99086.97;;;-2.32;80.08
12452;BME280;72521;48.924;12.204;2024-01-30T07:47:34;99085.88;;;-2.21;80.06
12452;BME280;72521;48.924;12.204;2024-01-30T07:52:38;99086.38;;;-2.02;80.03
12452;BME280;72521;48.924;12.204;2024-01-30T07:57:43;99099.88;;;-1.82;79.97
12452;BME280;72521;48.924;12.204;2024-01-30T08:02:48;99092.91;;;-1.41;79.86
12452;BME280;72521;48.924;12.204;2024-01-30T08:07:52;99099.81;;;-0.38;79.70
12452;BME280;72521;48.924;12.204;2024-01-30T08:12:57;99111.66;;;0.04;79.66
12452;BME280;72521;48.924;12.204;2024-01-30T08:18:02;99110.97;;;-0.60;79.89
12452;BME280;72521;48.924;12.204;2024-01-30T08:23:07;99119.41;;;0.81;79.69
12452;BME280;72521;48.924;12.204;2024-01-30T08:28:13;99106.53;;;1.31;79.80
12452;BME280;72521;48.924;12.204;2024-01-30T08:33:21;99119.78;;;1.95;79.95
12452;BME280;72521;48.924;12.204;2024-01-30T08:38:24;99115.28;;;2.25;80.21
12452;BME280;72521;48.924;12.204;2024-01-30T08:43:30;99121.38;;;2.53;80.46
12452;BME280;72521;48.924;12.204;2024-01-30T08:48:35;99111.63;;;2.90;80.82
12452;BME280;72521;48.924;12.204;2024-01-30T08:53:40;99102.97;;;2.19;81.56
12452;BME280;72521;48.924;12.204;2024-01-30T08:58:45;99108.59;;;2.58;81.65
12452;BME280;72521;48.924;12.204;2024-01-30T09:03:49;99109.66;;;2.71;82.04
12452;BME280;72521;48.924;12.204;2024-01-30T09:08:55;99100.88;;;2.29;82.58
12452;BME280;72521;48.924;12.204;2024-01-30T09:14:02;99108.94;;;2.34;82.74
12452;BME280;72521;48.924;12.204;2024-01-30T09:19:06;99104.22;;;2.44;83.14
12452;BME280;72521;48.924;12.204;2024-01-30T09:24:10;99102.25;;;2.46;83.42
12452;BME280;72521;48.924;12.204;2024-01-30T09:29:15;99105.41;;;2.20;84.05
12452;BME280;72521;48.924;12.204;2024-01-30T09:34:20;99099.22;;;2.07;84.44
12452;BME280;72521;48.924;12.204;2024-01-30T09:39:24;99105.66;;;2.47;84.54
12452;BME280;72521;48.924;12.204;2024-01-30T09:44:30;99102.34;;;2.17;85.22
12452;BME280;72521;48.924;12.204;2024-01-30T09:49:34;99109.19;;;2.60;85.08
12452;BME280;72521;48.924;12.204;2024-01-30T09:54:39;99099.84;;;2.51;85.76
12452;BME280;72521;48.924;12.204;2024-01-30T09:59:45;99101.47;;;2.74;86.13
12452;BME280;72521;48.924;12.204;2024-01-30T10:04:50;99093.44;;;3.03;86.42
12452;BME280;72521;48.924;12.204;2024-01-30T10:09:54;99091.06;;;3.36;86.92
12452;BME280;72521;48.924;12.204;2024-01-30T10:15:00;99088.78;;;3.26;87.89
12452;BME280;72521;48.924;12.204;2024-01-30T10:20:06;99081.69;;;3.20;89.48
12452;BME280;72521;48.924;12.204;2024-01-30T10:25:11;99077.56;;;3.05;90.29
12452;BME280;72521;48.924;12.204;2024-01-30T10:30:16;99080.22;;;3.93;90.17
12452;BME280;72521;48.924;12.204;2024-01-30T10:35:21;99066.19;;;4.93;90.15
12452;BME280;72521;48.924;12.204;2024-01-30T10:40:28;99055.72;;;4.73;94.24
12452;BME280;72521;48.924;12.204;2024-01-30T10:45:36;99041.94;;;5.75;96.19
12452;BME280;72521;48.924;12.204;2024-01-30T10:50:43;99028.69;;;6.02;100.00
12452;BME280;72521;48.924;12.204;2024-01-30T10:56:03;99018.13;;;7.07;100.00
12452;BME280;72521;48.924;12.204;2024-01-30T11:01:09;99005.59;;;6.42;100.00
12452;BME280;72521;48.924;12.204;2024-01-30T11:06:14;99003.19;;;8.28;100.00
12452;BME280;72521;48.924;12.204;2024-01-30T11:11:21;98994.34;;;6.78;100.00
12452;BME280;72521;48.924;12.204;2024-01-30T11:16:32;98988.66;;;9.07;100.00
12452;BME280;72521;48.924;12.204;2024-01-30T11:21:41;98977.00;;;9.71;100.00
12452;BME280;72521;48.924;12.204;2024-01-30T11:26:47;98963.44;;;9.96;100.00
12452;BME280;72521;48.924;12.204;2024-01-30T11:31:57;98956.59;;;9.26;100.00
12452;BME280;72521;48.924;12.204;2024-01-30T11:37:05;98956.63;;;8.10;100.00
12452;BME280;72521;48.924;12.204;2024-01-30T11:42:14;98946.59;;;7.89;100.00
12452;BME280;72521;48.924;12.204;2024-01-30T11:47:19;98940.47;;;9.11;100.00
12452;BME280;72521;48.924;12.204;2024-01-30T11:52:24;98939.81;;;9.89;100.00
12452;BME280;72521;48.924;12.204;2024-01-30T11:57:28;98938.78;;;9.34;100.00
12452;BME280;72521;48.924;12.204;2024-01-30T12:02:34;98935.03;;;8.54;100.00
12452;BME280;72521;48.924;12.204;2024-01-30T12:07:38;98926.25;;;8.89;100.00
12452;BME280;72521;48.924;12.204;2024-01-30T12:12:43;98918.03;;;8.39;100.00
12452;BME280;72521;48.924;12.204;2024-01-30T12:17:49;98916.94;;;5.99;100.00
12452;BME280;72521;48.924;12.204;2024-01-30T12:22:54;98921.34;;;5.42;100.00
12452;BME280;72521;48.924;12.204;2024-01-30T12:27:58;98911.59;;;5.81;100.00
12452;BME280;72521;48.924;12.204;2024-01-30T12:33:04;98916.53;;;7.36;100.00
12452;BME280;72521;48.924;12.204;2024-01-30T12:38:11;98911.06;;;7.79;100.00
12452;BME280;72521;48.924;12.204;2024-01-30T12:43:15;98909.47;;;8.55;100.00
12452;BME280;72521;48.924;12.204;2024-01-30T12:48:34;98896.31;;;7.90;100.00
12452;BME280;72521;48.924;12.204;2024-01-30T12:53:39;98895.97;;;7.98;100.00
12452;BME280;72521;48.924;12.204;2024-01-30T12:58:44;98893.31;;;7.15;100.00
12452;BME280;72521;48.924;12.204;2024-01-30T13:03:54;98892.44;;;6.30;100.00
12452;BME280;72521;48.924;12.204;2024-01-30T13:09:00;98890.41;;;6.07;100.00
12452;BME280;72521;48.924;12.204;2024-01-30T13:14:04;98884.72;;;6.10;100.00
12452;BME280;72521;48.924;12.204;2024-01-30T13:19:09;98887.75;;;5.82;100.00
12452;BME280;72521;48.924;12.204;2024-01-30T13:24:14;98879.16;;;5.69;100.00
12452;BME280;72521;48.924;12.204;2024-01-30T13:29:19;98878.75;;;5.40;100.00
12452;BME280;72521;48.924;12.204;2024-01-30T13:34:24;98884.84;;;5.34;100.00
12452;BME280;72521;48.924;12.204;2024-01-30T13:39:29;98881.81;;;5.31;100.00
12452;BME280;72521;48.924;12.204;2024-01-30T13:44:40;98879.59;;;5.34;100.00
12452;BME280;72521;48.924;12.204;2024-01-30T13:49:47;98875.22;;;5.21;100.00
12452;BME280;72521;48.924;12.204;2024-01-30T13:54:51;98876.91;;;5.03;100.00
12452;BME280;72521;48.924;12.204;2024-01-30T13:59:56;98873.78;;;4.88;100.00
12452;BME280;72521;48.924;12.204;2024-01-30T14:05:01;98876.88;;;4.65;100.00
12452;BME280;72521;48.924;12.204;2024-01-30T14:10:09;98878.22;;;4.87;100.00
12452;BME280;72521;48.924;12.204;2024-01-30T14:15:17;98878.81;;;4.82;100.00
12452;BME280;72521;48.924;12.204;2024-01-30T14:20:32;98881.19;;;4.91;100.00
12452;BME280;72521;48.924;12.204;2024-01-30T14:25:36;98884.13;;;5.83;100.00
12452;BME280;72521;48.924;12.204;2024-01-30T14:30:40;98882.06;;;6.35;100.00
12452;BME280;72521;48.924;12.204;2024-01-30T14:35:45;98887.09;;;7.28;100.00
12452;BME280;72521;48.924;12.204;2024-01-30T14:40:49;98883.03;;;6.95;100.00
12452;BME280;72521;48.924;12.204;2024-01-30T14:45:53;98887.28;;;6.17;100.00
12452;BME280;72521;48.924;12.204;2024-01-30T14:50:59;98890.53;;;5.94;100.00
12452;BME280;72521;48.924;12.204;2024-01-30T14:56:03;98897.31;;;5.70;100.00
12452;BME280;72521;48.924;12.204;2024-01-30T15:01:07;98896.22;;;5.84;100.00
12452;BME280;72521;48.924;12.204;2024-01-30T15:06:13;98896.09;;;5.41;100.00
12452;BME280;72521;48.924;12.204;2024-01-30T15:11:18;98902.78;;;4.93;100.00
12452;BME280;72521;48.924;12.204;2024-01-30T15:16:22;98907.50;;;4.77;100.00
12452;BME280;72521;48.924;12.204;2024-01-30T15:21:27;98901.94;;;4.41;100.00
12452;BME280;72521;48.924;12.204;2024-01-30T15:26:32;98913.84;;;4.17;100.00
12452;BME280;72521;48.924;12.204;2024-01-30T15:31:36;98914.25;;;4.01;100.00
12452;BME280;72521;48.924;12.204;2024-01-30T15:36:43;98919.84;;;3.85;100.00
12452;BME280;72521;48.924;12.204;2024-01-30T15:41:47;98914.41;;;3.66;100.00
12452;BME280;72521;48.924;12.204;2024-01-30T15:46:51;98902.75;;;3.62;100.00
12452;BME280;72521;48.924;12.204;2024-01-30T15:51:56;98908.75;;;3.50;100.00
12452;BME280;72521;48.924;12.204;2024-01-30T15:57:08;98918.78;;;3.40;100.00
12452;BME280;72521;48.924;12.204;2024-01-30T16:02:12;98931.44;;;3.29;100.00
12452;BME280;72521;48.924;12.204;2024-01-30T16:07:43;98936.41;;;3.18;100.00
12452;BME280;72521;48.924;12.204;2024-01-30T16:13:11;98945.03;;;3.05;100.00
12452;BME280;72521;48.924;12.204;2024-01-30T16:18:34;98949.34;;;2.85;100.00
12452;BME280;72521;48.924;12.204;2024-01-30T16:24:01;98950.56;;;2.54;100.00
12452;BME280;72521;48.924;12.204;2024-01-30T16:29:24;98957.50;;;2.41;100.00
12452;BME280;72521;48.924;12.204;2024-01-30T16:34:50;98966.56;;;2.38;100.00
12452;BME280;72521;48.924;12.204;2024-01-30T16:40:15;98969.91;;;2.32;100.00
12452;BME280;72521;48.924;12.204;2024-01-30T16:45:40;98968.69;;;2.28;100.00
12452;BME280;72521;48.924;12.204;2024-01-30T16:51:03;98967.81;;;2.21;100.00
12452;BME280;72521;48.924;12.204;2024-01-30T16:56:26;98975.34;;;2.09;100.00
12452;BME280;72521;48.924;12.204;2024-01-30T17:01:55;98980.13;;;2.06;100.00
12452;BME280;72521;48.924;12.204;2024-01-30T17:07:21;98990.56;;;2.06;100.00
12452;BME280;72521;48.924;12.204;2024-01-30T17:12:52;98991.56;;;1.83;100.00
12452;BME280;72521;48.924;12.204;2024-01-30T17:18:21;98992.56;;;2.04;100.00
12452;BME280;72521;48.924;12.204;2024-01-30T17:23:46;98990.03;;;1.89;100.00
12452;BME280;72521;48.924;12.204;2024-01-30T17:29:19;98995.78;;;1.63;100.00
12452;BME280;72521;48.924;12.204;2024-01-30T17:34:48;98999.59;;;1.82;100.00
12452;BME280;72521;48.924;12.204;2024-01-30T17:40:18;99002.09;;;1.54;100.00
12452;BME280;72521;48.924;12.204;2024-01-30T17:45:44;99008.53;;;1.07;100.00
12452;BME280;72521;48.924;12.204;2024-01-30T17:51:12;99007.75;;;0.92;100.00
12452;BME280;72521;48.924;12.204;2024-01-30T17:56:38;99011.13;;;0.78;100.00
12452;BME280;72521;48.924;12.204;2024-01-30T18:01:46;99027.66;;;0.56;100.00
12452;BME280;72521;48.924;12.204;2024-01-30T18:06:51;99031.59;;;0.52;100.00
12452;BME280;72521;48.924;12.204;2024-01-30T18:11:58;99030.78;;;0.51;100.00
12452;BME280;72521;48.924;12.204;2024-01-30T18:17:03;99031.25;;;0.32;100.00
12452;BME280;72521;48.924;12.204;2024-01-30T18:22:07;99033.69;;;0.33;98.79
12452;BME280;72521;48.924;12.204;2024-01-30T18:27:13;99039.22;;;0.53;96.48
12452;BME280;72521;48.924;12.204;2024-01-30T18:32:17;99046.00;;;0.40;95.40
12452;BME280;72521;48.924;12.204;2024-01-30T18:37:21;99049.78;;;0.14;95.30
12452;BME280;72521;48.924;12.204;2024-01-30T18:42:27;99052.56;;;0.13;94.54
12452;BME280;72521;48.924;12.204;2024-01-30T18:47:31;99060.97;;;-0.08;94.09
12452;BME280;72521;48.924;12.204;2024-01-30T18:52:36;99058.75;;;-0.11;93.15
12452;BME280;72521;48.924;12.204;2024-01-30T18:57:41;99060.16;;;-0.09;92.04
12452;BME280;72521;48.924;12.204;2024-01-30T19:02:45;99054.03;;;-0.16;91.07
12452;BME280;72521;48.924;12.204;2024-01-30T19:07:50;99059.19;;;-0.30;91.06
12452;BME280;72521;48.924;12.204;2024-01-30T19:12:55;99057.25;;;-0.37;90.38
12452;BME280;72521;48.924;12.204;2024-01-30T19:17:59;99061.72;;;-0.53;89.96
12452;BME280;72521;48.924;12.204;2024-01-30T19:23:05;99059.59;;;-0.50;89.42
12452;BME280;72521;48.924;12.204;2024-01-30T19:28:12;99067.59;;;-0.59;88.87
12452;BME280;72521;48.924;12.204;2024-01-30T19:33:16;99070.72;;;-0.72;88.54
12452;BME280;72521;48.924;12.204;2024-01-30T19:38:20;99074.41;;;-0.58;87.90
12452;BME280;72521;48.924;12.204;2024-01-30T19:43:30;99077.69;;;-0.72;87.68
12452;BME280;72521;48.924;12.204;2024-01-30T19:48:36;99080.34;;;-0.81;87.34
12452;BME280;72521;48.924;12.204;2024-01-30T19:53:42;99078.81;;;-0.67;86.72
12452;BME280;72521;48.924;12.204;2024-01-30T19:58:49;99078.16;;;-0.61;86.37
12452;BME280;72521;48.924;12.204;2024-01-30T20:03:54;99077.53;;;-0.71;86.11
12452;BME280;72521;48.924;12.204;2024-01-30T20:08:59;99081.94;;;-0.71;85.73
12452;BME280;72521;48.924;12.204;2024-01-30T20:14:05;99078.31;;;-0.62;85.36
12452;BME280;72521;48.924;12.204;2024-01-30T20:19:11;99075.94;;;-0.80;85.29
12452;BME280;72521;48.924;12.204;2024-01-30T20:24:15;99075.25;;;-0.74;84.92
12452;BME280;72521;48.924;12.204;2024-01-30T20:29:22;99074.28;;;-0.73;84.68
12452;BME280;72521;48.924;12.204;2024-01-30T20:34:28;99077.72;;;-0.81;84.53
12452;BME280;72521;48.924;12.204;2024-01-30T20:39:34;99081.44;;;-0.75;84.33
12452;BME280;72521;48.924;12.204;2024-01-30T20:44:41;99095.41;;;-0.68;84.12
12452;BME280;72521;48.924;12.204;2024-01-30T20:49:45;99093.44;;;-0.66;84.01
12452;BME280;72521;48.924;12.204;2024-01-30T20:54:49;99092.97;;;-0.69;83.99
12452;BME280;72521;48.924;12.204;2024-01-30T20:59:56;99091.22;;;-0.85;84.00
12452;BME280;72521;48.924;12.204;2024-01-30T21:05:00;99092.81;;;-0.76;83.79
12452;BME280;72521;48.924;12.204;2024-01-30T21:10:05;99102.38;;;-0.77;83.63
12452;BME280;72521;48.924;12.204;2024-01-30T21:15:14;99117.53;;;-0.80;83.54
12452;BME280;72521;48.924;12.204;2024-01-30T21:20:19;99101.84;;;-0.56;83.34
12452;BME280;72521;48.924;12.204;2024-01-30T21:25:24;99111.16;;;-0.22;82.97
12452;BME280;72521;48.924;12.204;2024-01-30T21:30:29;99106.59;;;-0.28;82.91
12452;BME280;72521;48.924;12.204;2024-01-30T21:35:34;99105.97;;;-0.30;82.95
12452;BME280;72521;48.924;12.204;2024-01-30T21:40:38;99105.06;;;-0.46;82.91
12452;BME280;72521;48.924;12.204;2024-01-30T21:45:44;99114.81;;;-0.40;82.88
12452;BME280;72521;48.924;12.204;2024-01-30T21:50:49;99108.94;;;-0.42;82.87
12452;BME280;72521;48.924;12.204;2024-01-30T21:55:52;99110.09;;;-0.44;82.80
12452;BME280;72521;48.924;12.204;2024-01-30T22:00:58;99116.75;;;-0.42;82.81
12452;BME280;72521;48.924;12.204;2024-01-30T22:06:02;99107.78;;;-0.31;82.72
12452;BME280;72521;48.924;12.204;2024-01-30T22:11:07;99112.78;;;-0.21;82.56
12452;BME280;72521;48.924;12.204;2024-01-30T22:16:15;99109.47;;;0.16;82.33
12452;BME280;72521;48.924;12.204;2024-01-30T22:21:19;99115.72;;;0.29;82.23
12452;BME280;72521;48.924;12.204;2024-01-30T22:26:24;99106.84;;;0.38;82.14
12452;BME280;72521;48.924;12.204;2024-01-30T22:31:29;99123.94;;;0.41;82.12
12452;BME280;72521;48.924;12.204;2024-01-30T22:36:36;99128.72;;;0.29;82.21
12452;BME280;72521;48.924;12.204;2024-01-30T22:41:40;99142.44;;;0.23;82.26
12452;BME280;72521;48.924;12.204;2024-01-30T22:46:46;99140.66;;;0.24;82.23
12452;BME280;72521;48.924;12.204;2024-01-30T22:51:50;99144.34;;;0.29;82.23
12452;BME280;72521;48.924;12.204;2024-01-30T22:56:54;99142.03;;;0.34;82.20
12452;BME280;72521;48.924;12.204;2024-01-30T23:02:00;99148.50;;;0.38;82.17
12452;BME280;72521;48.924;12.204;2024-01-30T23:07:04;99153.69;;;0.47;82.16
12452;BME280;72521;48.924;12.204;2024-01-30T23:12:09;99153.97;;;0.52;82.16
12452;BME280;72521;48.924;12.204;2024-01-30T23:17:14;99147.28;;;0.57;82.15
12452;BME280;72521;48.924;12.204;2024-01-30T23:22:18;99149.09;;;0.49;82.25
12452;BME280;72521;48.924;12.204;2024-01-30T23:27:23;99147.13;;;0.51;82.24
12452;BME280;72521;48.924;12.204;2024-01-30T23:32:28;99145.56;;;0.42;82.31
12452;BME280;72521;48.924;12.204;2024-01-30T23:37:44;99142.31;;;0.40;82.33
12452;BME280;72521;48.924;12.204;2024-01-30T23:42:49;99149.63;;;0.44;82.32
12452;BME280;72521;48.924;12.204;2024-01-30T23:47:55;99154.38;;;0.41;82.34
12452;BME280;72521;48.924;12.204;2024-01-30T23:52:59;99162.47;;;0.46;82.31
12452;BME280;72521;48.924;12.204;2024-01-30T23:58:04;99163.13;;;0.48;82.28
